createdAt,value
2017-08-25T00:01:26.554Z,93.70
2017-08-25T00:03:54.055Z,93.80
2017-08-25T00:06:21.569Z,93.70
2017-08-25T00:08:49.127Z,93.80
2017-08-25T00:11:17.188Z,93.90
2017-08-25T00:13:44.699Z,93.90
2017-08-25T00:16:12.703Z,93.90
2017-08-25T00:18:40.237Z,94.00
2017-08-25T00:21:08.271Z,93.90
2017-08-25T00:23:36.228Z,93.70
2017-08-25T00:26:03.810Z,93.60
2017-08-25T00:28:32.236Z,93.40
2017-08-25T00:31:00.665Z,93.30
2017-08-25T00:33:29.093Z,93.60
2017-08-25T00:35:56.598Z,93.70
2017-08-25T00:38:24.099Z,93.70
2017-08-25T00:40:51.620Z,93.80
2017-08-25T00:43:22.613Z,93.70
2017-08-25T00:45:50.119Z,93.70
2017-08-25T00:48:17.675Z,93.90
2017-08-25T00:50:45.208Z,93.70
2017-08-25T00:53:12.767Z,93.80
2017-08-25T00:55:40.267Z,93.70
2017-08-25T00:58:07.781Z,93.70
2017-08-25T01:00:35.339Z,93.30
2017-08-25T01:03:03.775Z,93.40
2017-08-25T01:05:31.316Z,93.40
2017-08-25T01:07:59.044Z,93.40
2017-08-25T01:10:26.620Z,93.40
2017-08-25T01:12:54.131Z,93.50
2017-08-25T01:15:21.637Z,93.70
2017-08-25T01:17:49.171Z,94.00
2017-08-25T01:20:18.044Z,94.30
2017-08-25T01:22:45.552Z,94.30
2017-08-25T01:25:13.988Z,94.30
2017-08-25T01:27:50.589Z,94.30
2017-08-25T01:30:18.215Z,94.40
2017-08-25T01:32:45.731Z,94.50
2017-08-25T01:35:13.563Z,94.60
2017-08-25T01:37:41.076Z,94.60
2017-08-25T01:40:08.794Z,94.80
2017-08-25T01:42:36.335Z,94.80
2017-08-25T01:45:03.851Z,94.90
2017-08-25T01:47:36.396Z,95.00
2017-08-25T01:50:03.946Z,95.10
2017-08-25T01:52:32.851Z,95.00
2017-08-25T01:55:00.351Z,95.00
2017-08-25T01:57:28.319Z,95.00
2017-08-25T01:59:56.787Z,95.10
2017-08-25T02:02:24.289Z,95.30
2017-08-25T02:04:51.790Z,95.40
2017-08-25T02:07:19.309Z,95.50
2017-08-25T02:09:46.825Z,95.50
2017-08-25T02:12:14.386Z,95.50
2017-08-25T02:14:41.889Z,95.50
2017-08-25T02:17:11.088Z,95.40
2017-08-25T02:19:38.680Z,95.40
2017-08-25T02:22:06.198Z,95.30
2017-08-25T02:24:34.143Z,95.10
2017-08-25T02:27:01.664Z,95.30
2017-08-25T02:29:32.401Z,95.20
2017-08-25T02:42:37.635Z,95.30
2017-08-25T02:45:05.139Z,95.30
2017-08-25T02:47:32.692Z,95.40
2017-08-25T02:50:00.201Z,95.60
2017-08-25T02:52:27.700Z,95.40
2017-08-25T02:54:56.945Z,95.50
2017-08-25T02:57:24.460Z,95.50
2017-08-25T02:59:51.974Z,95.40
2017-08-25T03:02:19.485Z,95.50
2017-08-25T03:04:47.043Z,95.60
2017-08-25T03:07:15.476Z,95.80
2017-08-25T03:09:43.082Z,95.90
2017-08-25T03:12:10.597Z,96.10
2017-08-25T03:14:42.561Z,96.20
2017-08-25T03:17:10.439Z,96.40
2017-08-25T03:19:37.963Z,96.40
2017-08-25T03:22:06.232Z,96.60
2017-08-25T03:24:33.764Z,96.50
2017-08-25T03:27:01.356Z,96.70
2017-08-25T03:29:29.472Z,96.60
2017-08-25T03:31:56.988Z,96.40
2017-08-25T03:34:24.503Z,96.40
2017-08-25T03:36:52.003Z,96.30
2017-08-25T03:39:19.523Z,96.30
2017-08-25T03:41:47.039Z,96.20
2017-08-25T03:44:14.637Z,96.00
2017-08-25T03:46:43.067Z,96.10
2017-08-25T03:49:11.132Z,96.40
2017-08-25T03:51:38.644Z,96.40
2017-08-25T03:54:06.184Z,96.20
2017-08-25T03:56:33.716Z,96.30
2017-08-25T03:59:02.967Z,96.10
2017-08-25T04:01:30.637Z,96.10
2017-08-25T04:03:58.146Z,96.20
2017-08-25T04:06:27.395Z,96.50
2017-08-25T04:08:54.904Z,96.50
2017-08-25T04:11:22.462Z,96.80
2017-08-25T04:13:50.404Z,96.70
2017-08-25T04:16:17.920Z,96.80
2017-08-25T04:18:46.128Z,96.70
2017-08-25T04:21:13.667Z,96.90
2017-08-25T04:23:41.176Z,96.60
2017-08-25T04:26:08.788Z,96.60
2017-08-25T04:28:37.236Z,96.70
2017-08-25T04:31:04.969Z,96.90
2017-08-25T04:33:33.198Z,96.90
2017-08-25T04:36:00.731Z,97.00
2017-08-25T04:38:28.323Z,97.00
2017-08-25T04:40:55.834Z,97.00
2017-08-25T04:43:23.386Z,97.00
2017-08-25T04:45:50.958Z,97.20
2017-08-25T04:48:18.910Z,97.10
2017-08-25T04:50:46.429Z,97.20
2017-08-25T04:53:13.955Z,97.20
2017-08-25T04:55:42.230Z,97.10
2017-08-25T04:58:10.564Z,97.10
2017-08-25T05:00:38.071Z,97.00
2017-08-25T05:03:05.595Z,96.90
2017-08-25T05:05:33.116Z,96.70
2017-08-25T05:08:00.615Z,95.50
2017-08-25T05:10:28.163Z,94.70
2017-08-25T05:12:55.672Z,94.20
2017-08-25T05:15:23.626Z,93.70
2017-08-25T05:17:51.774Z,93.10
2017-08-25T05:20:19.369Z,93.10
2017-08-25T05:22:46.868Z,92.80
2017-08-25T05:25:14.428Z,92.80
2017-08-25T05:27:41.927Z,92.70
2017-08-25T05:30:09.432Z,92.60
2017-08-25T05:32:37.292Z,92.60
2017-08-25T05:35:05.122Z,92.40
2017-08-25T05:37:32.639Z,92.20
2017-08-25T05:40:00.140Z,92.30
2017-08-25T05:42:28.301Z,92.30
2017-08-25T05:44:55.803Z,92.50
2017-08-25T05:47:25.007Z,92.30
2017-08-25T05:49:52.568Z,92.30
2017-08-25T05:52:20.832Z,92.20
2017-08-25T05:54:49.159Z,92.30
2017-08-25T05:57:17.157Z,92.20
2017-08-25T05:59:44.666Z,92.10
2017-08-25T06:02:16.063Z,91.90
2017-08-25T06:04:44.139Z,91.80
2017-08-25T06:07:11.640Z,91.70
2017-08-25T06:09:39.148Z,91.70
2017-08-25T06:12:06.647Z,90.60
2017-08-25T06:14:34.219Z,90.30
2017-08-25T06:17:01.719Z,89.70
2017-08-25T06:19:29.259Z,90.00
2017-08-25T06:21:56.847Z,89.90
2017-08-25T06:24:24.355Z,88.60
2017-08-25T06:26:53.152Z,89.00
2017-08-25T06:29:20.694Z,88.80
2017-08-25T06:31:48.981Z,87.90
2017-08-25T06:34:16.809Z,87.90
2017-08-25T06:36:44.357Z,88.00
2017-08-25T06:39:12.720Z,87.90
2017-08-25T06:41:41.159Z,87.90
2017-08-25T06:44:09.451Z,87.80
2017-08-25T06:46:38.095Z,87.80
2017-08-25T06:49:07.019Z,87.30
2017-08-25T06:51:34.524Z,87.30
2017-08-25T06:54:02.052Z,86.00
2017-08-25T06:56:31.264Z,85.10
2017-08-25T06:58:58.836Z,84.90
2017-08-25T07:01:26.420Z,84.40
2017-08-25T07:03:53.919Z,84.80
2017-08-25T07:06:21.420Z,83.70
2017-08-25T07:08:49.461Z,82.90
2017-08-25T07:11:16.990Z,82.50
2017-08-25T07:13:44.790Z,83.00
2017-08-25T07:16:12.327Z,80.50
2017-08-25T07:18:39.843Z,79.80
2017-08-25T07:21:07.347Z,78.70
2017-08-25T07:23:34.854Z,77.80
2017-08-25T07:26:02.408Z,77.70
2017-08-25T07:28:29.985Z,70.80
2017-08-25T07:30:58.020Z,65.30
2017-08-25T07:33:25.514Z,66.10
2017-08-25T07:35:53.029Z,64.10
2017-08-25T07:38:20.569Z,65.00
2017-08-25T07:40:48.118Z,66.70
2017-08-25T07:43:15.638Z,69.80
2017-08-25T07:45:43.144Z,70.60
2017-08-25T07:48:10.695Z,71.60
2017-08-25T07:50:38.195Z,70.40
2017-08-25T07:53:06.391Z,68.60
2017-08-25T07:55:33.899Z,65.50
2017-08-25T07:58:01.886Z,59.90
2017-08-25T08:00:31.097Z,51.60
2017-08-25T08:02:58.615Z,51.50
2017-08-25T08:05:26.186Z,49.50
2017-08-25T08:07:53.699Z,47.10
2017-08-25T08:10:21.400Z,44.80
2017-08-25T08:12:48.906Z,41.00
2017-08-25T08:15:16.421Z,41.00
2017-08-25T08:17:44.475Z,44.50
2017-08-25T08:20:11.980Z,42.30
2017-08-25T08:22:40.349Z,39.80
2017-08-25T08:25:07.852Z,39.70
2017-08-25T08:27:35.366Z,38.10
2017-08-25T08:30:03.503Z,37.10
2017-08-25T08:32:31.012Z,35.80
2017-08-25T08:34:58.609Z,35.80
2017-08-25T08:37:26.220Z,35.30
2017-08-25T08:39:53.732Z,35.50
2017-08-25T08:42:21.248Z,34.80
2017-08-25T08:44:49.279Z,35.60
2017-08-25T08:47:18.248Z,33.90
2017-08-25T08:49:45.755Z,33.80
2017-08-25T08:52:13.780Z,33.90
2017-08-25T08:54:41.872Z,33.70
2017-08-25T08:57:09.394Z,33.00
2017-08-25T08:59:37.677Z,32.20
2017-08-25T09:02:05.201Z,32.20
2017-08-25T09:04:33.681Z,32.50
2017-08-25T09:07:04.727Z,32.70
2017-08-25T09:09:32.296Z,32.70
2017-08-25T09:11:59.803Z,33.70
2017-08-25T09:14:27.343Z,31.40
2017-08-25T09:16:55.201Z,33.10
2017-08-25T09:19:24.367Z,32.30
2017-08-25T09:21:51.920Z,32.20
2017-08-25T09:24:19.450Z,32.00
2017-08-25T09:26:46.973Z,30.90
2017-08-25T09:29:15.440Z,30.40
2017-08-25T09:31:42.956Z,31.00
2017-08-25T09:34:10.478Z,31.00
2017-08-25T09:36:38.058Z,30.50
2017-08-25T09:39:05.589Z,29.90
2017-08-25T09:41:34.815Z,29.00
2017-08-25T09:44:02.386Z,28.80
2017-08-25T09:46:29.896Z,29.30
2017-08-25T09:48:58.087Z,29.90
2017-08-25T09:51:25.596Z,30.00
2017-08-25T09:53:53.879Z,29.90
2017-08-25T09:56:21.799Z,29.30
2017-08-25T09:58:49.311Z,28.70
2017-08-25T10:01:16.824Z,29.10
2017-08-25T10:03:45.015Z,29.30
2017-08-25T10:06:12.635Z,29.30
2017-08-25T10:08:40.131Z,28.80
2017-08-25T10:11:07.715Z,28.60
2017-08-25T10:13:35.216Z,28.20
2017-08-25T10:16:03.046Z,29.20
2017-08-25T10:18:30.566Z,29.10
2017-08-25T10:20:58.939Z,29.30
2017-08-25T10:23:26.700Z,29.20
2017-08-25T10:25:54.241Z,28.60
2017-08-25T10:28:21.754Z,27.50
2017-08-25T10:30:49.896Z,27.80
2017-08-25T10:33:29.227Z,27.60
2017-08-25T10:36:10.312Z,27.90
2017-08-25T10:38:50.960Z,27.90
2017-08-25T10:44:29.468Z,27.50
2017-08-25T10:46:56.977Z,27.70
2017-08-25T10:49:24.535Z,27.30
2017-08-25T10:51:53.730Z,27.30
2017-08-25T10:54:21.239Z,27.20
2017-08-25T10:56:48.751Z,26.80
2017-08-25T10:59:18.019Z,26.70
2017-08-25T11:01:45.532Z,26.70
2017-08-25T11:04:13.049Z,27.10
2017-08-25T11:06:40.557Z,27.40
2017-08-25T11:09:08.067Z,26.90
2017-08-25T11:11:35.579Z,26.00
2017-08-25T11:14:03.083Z,26.00
2017-08-25T11:16:31.299Z,26.20
2017-08-25T11:18:58.792Z,27.20
2017-08-25T11:21:26.317Z,27.80
2017-08-25T11:23:53.840Z,27.60
2017-08-25T11:26:21.515Z,27.20
2017-08-25T11:28:49.067Z,26.30
2017-08-25T11:31:16.575Z,26.90
2017-08-25T11:33:44.075Z,26.70
2017-08-25T11:36:11.575Z,26.40
2017-08-25T11:38:39.703Z,26.90
2017-08-25T11:41:07.208Z,26.80
2017-08-25T11:43:34.721Z,26.60
2017-08-25T11:46:02.297Z,26.00
2017-08-25T11:48:29.803Z,26.30
2017-08-25T11:50:57.907Z,27.00
2017-08-25T11:53:26.184Z,26.60
2017-08-25T11:55:53.696Z,26.60
2017-08-25T11:58:21.796Z,26.70
2017-08-25T12:00:49.367Z,27.50
2017-08-25T12:03:16.875Z,27.30
2017-08-25T12:05:45.563Z,27.70
2017-08-25T12:08:14.905Z,27.10
2017-08-25T12:10:42.511Z,27.00
2017-08-25T12:13:10.076Z,26.40
2017-08-25T12:15:37.635Z,27.30
2017-08-25T12:18:05.160Z,26.80
2017-08-25T12:20:32.716Z,26.80
2017-08-25T12:23:00.591Z,26.90
2017-08-25T12:25:29.380Z,27.70
2017-08-25T12:27:57.783Z,28.20
2017-08-25T12:30:25.284Z,29.00
2017-08-25T12:32:53.564Z,30.20
2017-08-25T12:35:21.083Z,30.80
2017-08-25T12:37:48.647Z,31.00
2017-08-25T12:40:22.212Z,30.30
2017-08-25T12:42:49.727Z,29.90
2017-08-25T12:45:17.223Z,29.90
2017-08-25T12:47:44.825Z,31.00
2017-08-25T12:50:12.342Z,32.10
2017-08-25T12:52:39.851Z,33.50
2017-08-25T12:55:07.392Z,33.30
2017-08-25T12:57:35.283Z,33.60
2017-08-25T13:00:02.791Z,35.40
2017-08-25T13:02:30.291Z,35.50
2017-08-25T13:04:57.795Z,36.80
2017-08-25T13:07:25.310Z,37.40
2017-08-25T13:09:56.303Z,37.20
2017-08-25T13:12:24.604Z,38.20
2017-08-25T13:14:52.116Z,38.10
2017-08-25T13:17:20.411Z,38.40
2017-08-25T13:19:47.921Z,38.50
2017-08-25T13:22:15.441Z,36.80
2017-08-25T13:24:43.572Z,38.60
2017-08-25T13:27:13.113Z,37.60
2017-08-25T13:29:40.636Z,37.60
2017-08-25T13:32:08.181Z,38.10
2017-08-25T13:34:35.756Z,39.20
2017-08-25T13:37:03.908Z,39.60
2017-08-25T13:39:32.068Z,39.70
2017-08-25T13:42:00.683Z,40.60
2017-08-25T13:44:28.248Z,40.70
2017-08-25T13:46:55.760Z,41.40
2017-08-25T13:49:23.354Z,40.50
2017-08-25T13:51:50.911Z,41.40
2017-08-25T13:54:18.483Z,39.90
2017-08-25T13:56:46.509Z,39.80
2017-08-25T13:59:14.043Z,41.50
2017-08-25T14:01:42.316Z,41.70
2017-08-25T14:04:09.824Z,41.60
2017-08-25T14:06:37.336Z,40.10
2017-08-25T14:09:06.065Z,40.90
2017-08-25T14:11:33.816Z,41.20
2017-08-25T14:14:01.336Z,41.90
2017-08-25T14:16:29.651Z,43.70
2017-08-25T14:18:57.221Z,43.20
2017-08-25T14:21:24.724Z,43.50
2017-08-25T14:23:53.225Z,44.40
2017-08-25T14:26:26.010Z,44.30
2017-08-25T14:28:54.589Z,44.90
2017-08-25T14:31:22.191Z,44.80
2017-08-25T14:33:49.699Z,44.90
2017-08-25T14:36:18.124Z,47.00
2017-08-25T14:38:45.640Z,46.60
2017-08-25T14:41:14.988Z,45.50
2017-08-25T14:43:43.182Z,46.80
2017-08-25T14:46:10.687Z,46.10
2017-08-25T14:48:39.151Z,44.80
2017-08-25T14:51:08.083Z,46.10
2017-08-25T14:53:35.598Z,45.70
2017-08-25T14:56:09.480Z,46.20
2017-08-25T14:58:36.997Z,45.40
2017-08-25T15:01:06.020Z,47.50
2017-08-25T15:03:33.586Z,47.50
2017-08-25T15:06:01.092Z,47.60
2017-08-25T15:08:28.604Z,46.30
2017-08-25T15:10:56.107Z,47.20
2017-08-25T15:13:23.629Z,47.80
2017-08-25T15:15:52.128Z,47.30
2017-08-25T15:18:19.640Z,48.20
2017-08-25T15:20:47.153Z,49.00
2017-08-25T15:23:15.361Z,49.60
2017-08-25T15:25:43.633Z,51.90
2017-08-25T15:28:11.144Z,51.80
2017-08-25T15:30:38.705Z,50.90
2017-08-25T15:33:06.260Z,49.40
2017-08-25T15:35:33.769Z,50.20
2017-08-25T15:38:01.276Z,48.60
2017-08-25T15:40:28.820Z,48.80
2017-08-25T15:42:56.315Z,48.40
2017-08-25T15:45:24.830Z,50.30
2017-08-25T15:47:52.359Z,50.10
2017-08-25T15:50:19.895Z,52.10
2017-08-25T15:52:47.461Z,48.70
2017-08-25T15:55:16.911Z,50.90
2017-08-25T15:57:47.183Z,49.50
2017-08-25T16:00:16.269Z,50.60
2017-08-25T16:02:44.268Z,51.60
2017-08-25T16:05:12.315Z,53.90
2017-08-25T16:07:40.548Z,54.60
2017-08-25T16:10:08.079Z,54.30
2017-08-25T16:12:35.593Z,54.00
2017-08-25T16:15:04.520Z,52.70
2017-08-25T16:17:32.023Z,52.70
2017-08-25T16:20:00.060Z,52.70
2017-08-25T16:22:28.336Z,52.60
2017-08-25T16:24:55.847Z,51.50
2017-08-25T16:27:23.343Z,51.70
2017-08-25T16:29:50.844Z,51.10
2017-08-25T16:32:18.348Z,52.00
2017-08-25T16:34:45.843Z,53.60
2017-08-25T16:37:14.407Z,54.60
2017-08-25T16:39:42.312Z,56.80
2017-08-25T16:42:09.820Z,57.00
2017-08-25T16:44:37.327Z,56.80
2017-08-25T16:47:04.852Z,56.20
2017-08-25T16:49:32.365Z,56.90
2017-08-25T16:51:59.888Z,57.10
2017-08-25T16:54:27.400Z,58.50
2017-08-25T16:56:56.603Z,61.00
2017-08-25T16:59:24.920Z,63.50
2017-08-25T17:01:52.439Z,63.50
2017-08-25T17:04:20.953Z,64.90
2017-08-25T17:06:48.505Z,67.10
2017-08-25T17:09:16.968Z,67.60
2017-08-25T17:11:45.111Z,66.50
2017-08-25T17:14:12.629Z,61.80
2017-08-25T17:16:40.135Z,60.00
2017-08-25T17:19:07.798Z,66.10
2017-08-25T17:21:35.381Z,67.30
2017-08-25T17:24:02.888Z,66.80
2017-08-25T17:26:30.407Z,68.10
2017-08-25T17:28:58.990Z,71.30
2017-08-25T17:31:26.522Z,71.10
2017-08-25T17:33:54.592Z,72.80
2017-08-25T17:36:22.106Z,74.40
2017-08-25T17:38:49.607Z,75.00
2017-08-25T17:41:18.040Z,74.30
2017-08-25T17:43:46.121Z,73.90
2017-08-25T17:46:13.667Z,74.10
2017-08-25T17:48:41.187Z,73.50
2017-08-25T17:51:08.696Z,74.70
2017-08-25T17:53:37.177Z,76.80
2017-08-25T17:56:04.751Z,78.00
2017-08-25T17:58:32.255Z,76.90
2017-08-25T18:01:00.529Z,76.60
2017-08-25T18:03:29.270Z,76.60
2017-08-25T18:05:56.875Z,77.30
2017-08-25T18:08:24.451Z,77.70
2017-08-25T18:10:52.001Z,78.20
2017-08-25T18:13:20.272Z,78.80
2017-08-25T18:15:47.783Z,79.60
2017-08-25T18:18:17.388Z,79.60
2017-08-25T18:20:45.826Z,80.90
2017-08-25T18:23:13.367Z,81.20
2017-08-25T18:25:41.771Z,80.60
2017-08-25T18:28:11.000Z,81.40
2017-08-25T18:30:43.917Z,80.90
2017-08-25T18:33:11.428Z,80.60
2017-08-25T18:35:39.716Z,82.00
2017-08-25T18:38:11.139Z,83.30
2017-08-25T18:40:38.660Z,83.30
2017-08-25T18:43:06.174Z,83.80
2017-08-25T18:45:33.686Z,84.10
2017-08-25T18:48:01.278Z,83.70
2017-08-25T18:50:28.836Z,83.70
2017-08-25T18:52:59.491Z,83.60
2017-08-25T18:55:28.912Z,82.90
2017-08-25T18:57:56.432Z,83.20
2017-08-25T19:00:23.949Z,83.20
2017-08-25T19:02:51.447Z,83.90
2017-08-25T19:05:23.925Z,83.80
2017-08-25T19:07:51.440Z,84.30
2017-08-25T19:10:19.012Z,83.20
2017-08-25T19:12:46.560Z,84.00
2017-08-25T19:15:15.004Z,85.00
2017-08-25T19:17:47.744Z,85.10
2017-08-25T19:20:16.272Z,85.70
2017-08-25T19:22:43.813Z,85.60
2017-08-25T19:25:11.373Z,85.50
2017-08-25T19:27:39.855Z,86.20
2017-08-25T19:30:07.396Z,85.70
2017-08-25T19:32:34.944Z,85.20
2017-08-25T19:35:02.509Z,85.70
2017-08-25T19:37:30.504Z,85.60
2017-08-25T19:39:59.724Z,85.50
2017-08-25T19:42:27.275Z,85.60
2017-08-25T19:44:54.792Z,85.70
2017-08-25T19:47:23.612Z,86.10
2017-08-25T19:49:51.165Z,86.60
2017-08-25T19:52:19.150Z,86.90
2017-08-25T19:54:46.667Z,87.90
2017-08-25T19:57:14.171Z,86.70
2017-08-25T19:59:41.688Z,87.10
2017-08-25T20:02:12.467Z,86.30
2017-08-25T20:04:39.978Z,85.80
2017-08-25T20:07:07.742Z,86.30
2017-08-25T20:09:35.278Z,86.00
2017-08-25T20:12:03.548Z,85.60
2017-08-25T20:14:32.787Z,82.70
2017-08-25T20:17:00.286Z,82.60
2017-08-25T20:19:28.271Z,80.50
2017-08-25T20:21:57.462Z,79.10
2017-08-25T20:24:24.966Z,79.10
2017-08-25T20:26:52.488Z,77.10
2017-08-25T20:29:19.989Z,76.70
2017-08-25T20:31:47.496Z,76.70
2017-08-25T20:34:15.006Z,76.30
2017-08-25T20:36:42.506Z,78.10
2017-08-25T20:39:10.566Z,78.70
2017-08-25T20:41:38.067Z,79.90
2017-08-25T20:44:05.580Z,81.10
2017-08-25T20:46:33.096Z,82.30
2017-08-25T20:49:04.172Z,82.80
2017-08-25T20:51:31.700Z,83.70
2017-08-25T20:54:00.887Z,85.20
2017-08-25T20:56:28.513Z,85.10
2017-08-25T20:58:56.045Z,85.60
2017-08-25T21:01:23.546Z,86.20
2017-08-25T21:03:54.783Z,86.00
2017-08-25T21:06:22.325Z,86.80
2017-08-25T21:08:49.912Z,87.50
2017-08-25T21:11:17.424Z,88.00
2017-08-25T21:13:44.927Z,88.50
2017-08-25T21:16:12.535Z,89.20
2017-08-25T21:18:40.056Z,89.60
2017-08-25T21:21:11.967Z,89.70
2017-08-25T21:23:39.979Z,90.40
2017-08-25T21:26:07.498Z,91.20
2017-08-25T21:28:35.089Z,90.90
2017-08-25T21:31:02.995Z,92.30
2017-08-25T21:33:30.956Z,91.10
2017-08-25T21:35:58.472Z,92.10
2017-08-25T21:38:26.018Z,92.80
2017-08-25T21:40:53.526Z,92.40
2017-08-25T21:43:21.069Z,93.50
2017-08-25T21:45:48.644Z,94.00
2017-08-25T21:48:20.149Z,93.50
2017-08-25T21:50:47.956Z,93.50
2017-08-25T21:53:15.631Z,94.30
2017-08-25T21:55:43.138Z,94.20
2017-08-25T21:58:10.644Z,93.70
2017-08-25T22:00:38.603Z,94.20
2017-08-25T22:03:13.796Z,94.30
2017-08-25T22:05:41.312Z,94.50
2017-08-25T22:08:08.811Z,93.90
2017-08-25T22:10:36.304Z,94.60
2017-08-25T22:13:03.862Z,94.70
2017-08-25T22:15:32.295Z,94.10
2017-08-25T22:17:59.795Z,94.70
2017-08-25T22:20:27.311Z,94.90
2017-08-25T22:22:55.627Z,94.70
2017-08-25T22:25:23.144Z,94.90
2017-08-25T22:27:51.291Z,94.90
2017-08-25T22:30:18.797Z,95.20
2017-08-25T22:32:47.207Z,95.40
2017-08-25T22:35:14.714Z,95.40
2017-08-25T22:37:42.223Z,95.20
2017-08-25T22:40:10.664Z,95.50
2017-08-25T22:42:38.928Z,95.80
2017-08-25T22:45:06.460Z,95.80
2017-08-25T22:47:33.995Z,95.70
2017-08-25T22:50:01.501Z,95.50
2017-08-25T22:52:30.508Z,95.70
2017-08-25T22:54:58.811Z,95.20
2017-08-25T22:57:26.427Z,95.30
2017-08-25T22:59:54.685Z,95.30
2017-08-25T23:02:22.244Z,95.10
2017-08-25T23:04:49.748Z,95.30
2017-08-25T23:07:17.292Z,95.50
2017-08-25T23:09:44.806Z,95.70
2017-08-25T23:12:12.332Z,95.80
2017-08-25T23:14:39.878Z,95.90
2017-08-25T23:17:08.111Z,96.20
2017-08-25T23:19:37.271Z,96.30
2017-08-25T23:22:04.768Z,96.30
2017-08-25T23:24:33.352Z,96.40
2017-08-25T23:27:00.854Z,96.50
2017-08-25T23:29:28.849Z,96.40
2017-08-25T23:31:56.367Z,96.30
2017-08-25T23:34:23.908Z,96.50
2017-08-25T23:36:54.115Z,96.70
2017-08-25T23:39:25.512Z,96.40
2017-08-25T23:41:53.024Z,96.60
2017-08-25T23:44:20.529Z,96.60
2017-08-25T23:46:48.483Z,96.70
2017-08-25T23:49:15.979Z,96.80
2017-08-25T23:51:45.929Z,96.60
2017-08-25T23:54:18.324Z,96.70
2017-08-25T23:56:45.828Z,96.70
2017-08-25T23:59:13.387Z,96.70
